createdAt,value
2023-04-21T00:01:03.758Z,68.10
2023-04-21T00:03:39.525Z,68.20
2023-04-21T00:06:14.938Z,68.30
2023-04-21T00:08:50.770Z,68.30
2023-04-21T00:11:25.746Z,68.30
2023-04-21T00:14:00.741Z,68.50
2023-04-21T00:16:35.649Z,68.80
2023-04-21T00:19:10.602Z,69.30
2023-04-21T00:21:46.206Z,68.90
2023-04-21T00:24:21.071Z,68.90
2023-04-21T00:26:55.997Z,68.70
2023-04-21T00:29:31.013Z,68.50
2023-04-21T00:32:09.779Z,68.50
2023-04-21T00:34:45.150Z,68.50
2023-04-21T00:37:20.754Z,68.60
2023-04-21T00:39:55.719Z,68.60
2023-04-21T00:42:30.653Z,68.70
2023-04-21T00:45:06.255Z,68.80
2023-04-21T00:47:42.070Z,68.90
2023-04-21T00:50:17.097Z,69.10
2023-04-21T00:52:52.529Z,69.20
2023-04-21T00:55:28.996Z,69.50
2023-04-21T00:58:05.364Z,69.50
2023-04-21T01:00:40.428Z,69.50
2023-04-21T01:03:16.773Z,69.50
2023-04-21T01:05:51.996Z,69.40
2023-04-21T01:08:27.166Z,69.50
2023-04-21T01:11:11.124Z,69.50
2023-04-21T01:13:48.052Z,69.50
2023-04-21T01:16:24.053Z,69.30
2023-04-21T01:19:02.055Z,69.20
2023-04-21T01:21:43.194Z,68.90
2023-04-21T01:24:18.117Z,68.70
2023-04-21T01:26:52.986Z,68.80
2023-04-21T01:29:32.209Z,68.90
2023-04-21T01:32:13.608Z,68.80
2023-04-21T01:34:49.740Z,68.70
2023-04-21T01:37:29.890Z,68.50
2023-04-21T01:40:09.124Z,68.20
2023-04-21T01:42:45.047Z,68.50
2023-04-21T01:45:19.913Z,68.40
2023-04-21T01:47:54.997Z,68.60
2023-04-21T01:50:29.970Z,68.70
2023-04-21T01:53:05.002Z,68.60
2023-04-21T01:55:39.910Z,68.40
2023-04-21T01:58:17.078Z,68.20
2023-04-21T02:00:52.037Z,68.00
2023-04-21T02:03:27.444Z,67.70
2023-04-21T02:06:02.378Z,67.90
2023-04-21T02:08:37.252Z,68.00
2023-04-21T02:11:12.160Z,68.00
2023-04-21T02:13:48.731Z,68.00
2023-04-21T02:16:26.321Z,68.10
2023-04-21T02:19:01.529Z,67.80
2023-04-21T02:21:36.750Z,68.00
2023-04-21T02:24:11.732Z,68.00
2023-04-21T02:26:46.590Z,67.90
2023-04-21T02:29:21.754Z,68.30
2023-04-21T02:32:05.291Z,68.10
2023-04-21T02:34:49.057Z,67.90
2023-04-21T02:37:24.555Z,67.70
2023-04-21T02:40:01.590Z,67.50
2023-04-21T02:42:38.705Z,67.30
2023-04-21T02:45:13.672Z,67.50
2023-04-21T02:47:48.621Z,67.60
2023-04-21T02:50:23.710Z,67.70
2023-04-21T02:52:58.627Z,67.70
2023-04-21T02:55:33.670Z,67.90
2023-04-21T02:58:08.557Z,68.10
2023-04-21T03:00:43.501Z,68.10
2023-04-21T03:03:18.950Z,68.10
2023-04-21T03:06:05.173Z,68.20
2023-04-21T03:08:40.094Z,68.30
2023-04-21T03:11:15.008Z,68.40
2023-04-21T03:13:49.975Z,68.70
2023-04-21T03:16:27.986Z,68.80
2023-04-21T03:19:02.920Z,69.20
2023-04-21T03:21:39.039Z,69.60
2023-04-21T03:24:14.007Z,70.10
2023-04-21T03:26:48.939Z,70.20
2023-04-21T03:29:24.009Z,70.50
2023-04-21T03:31:59.167Z,70.70
2023-04-21T03:34:36.101Z,70.90
2023-04-21T03:37:13.376Z,71.00
2023-04-21T03:39:48.720Z,71.20
2023-04-21T03:42:24.542Z,71.20
2023-04-21T03:45:04.766Z,71.20
2023-04-21T03:47:41.798Z,71.40
2023-04-21T03:50:17.197Z,71.50
2023-04-21T03:52:52.085Z,72.10
2023-04-21T03:55:27.183Z,72.10
2023-04-21T03:58:02.128Z,72.10
2023-04-21T04:00:37.104Z,72.10
2023-04-21T04:03:12.190Z,72.10
2023-04-21T04:05:47.273Z,72.30
2023-04-21T04:08:22.279Z,72.30
2023-04-21T04:10:57.557Z,72.40
2023-04-21T04:13:32.492Z,72.50
2023-04-21T04:16:08.231Z,72.50
2023-04-21T04:18:43.268Z,72.40
2023-04-21T04:21:19.211Z,72.40
2023-04-21T04:23:54.167Z,72.30
2023-04-21T04:26:29.619Z,72.40
2023-04-21T04:29:06.032Z,72.20
2023-04-21T04:31:41.962Z,71.90
2023-04-21T04:34:17.516Z,71.80
2023-04-21T04:36:52.531Z,71.70
2023-04-21T04:39:27.561Z,71.60
2023-04-21T04:42:03.615Z,71.70
2023-04-21T04:44:38.773Z,71.70
2023-04-21T04:47:13.665Z,71.70
2023-04-21T04:49:48.580Z,71.60
2023-04-21T04:52:23.505Z,72.10
2023-04-21T04:54:58.426Z,71.70
2023-04-21T04:57:33.291Z,71.70
2023-04-21T05:00:14.350Z,71.40
2023-04-21T05:02:49.408Z,71.20
2023-04-21T05:05:25.062Z,71.00
2023-04-21T05:08:00.288Z,71.00
2023-04-21T05:10:36.230Z,70.80
2023-04-21T05:13:11.098Z,70.60
2023-04-21T05:15:45.967Z,70.50
2023-04-21T05:18:20.822Z,70.40
2023-04-21T05:20:56.510Z,70.20
2023-04-21T05:23:31.405Z,70.30
2023-04-21T05:26:06.348Z,70.10
2023-04-21T05:28:41.213Z,70.00
2023-04-21T05:31:16.232Z,70.10
2023-04-21T05:33:51.524Z,70.10
2023-04-21T05:36:27.890Z,70.40
2023-04-21T05:39:02.744Z,70.10
2023-04-21T05:41:37.683Z,69.60
2023-04-21T05:44:12.500Z,69.00
2023-04-21T05:46:47.359Z,68.40
2023-04-21T05:49:22.264Z,67.90
2023-04-21T05:51:57.141Z,67.50
2023-04-21T05:54:33.159Z,67.90
2023-04-21T05:57:08.544Z,67.70
2023-04-21T05:59:43.889Z,67.80
2023-04-21T06:02:18.990Z,67.70
2023-04-21T06:04:54.315Z,67.70
2023-04-21T06:07:29.607Z,67.40
2023-04-21T06:10:04.976Z,67.10
2023-04-21T06:12:40.166Z,66.60
2023-04-21T06:15:15.131Z,66.10
2023-04-21T06:17:55.165Z,66.30
2023-04-21T06:20:30.069Z,66.80
2023-04-21T06:23:04.894Z,67.20
2023-04-21T06:25:39.720Z,66.40
2023-04-21T06:28:14.641Z,64.40
2023-04-21T06:30:49.488Z,63.70
2023-04-21T06:33:24.336Z,63.50
2023-04-21T06:35:59.184Z,63.30
2023-04-21T06:38:34.060Z,63.10
2023-04-21T06:41:10.008Z,63.20
2023-04-21T06:43:44.911Z,63.20
2023-04-21T06:46:19.810Z,63.20
2023-04-21T06:48:54.686Z,63.30
2023-04-21T06:51:29.573Z,63.00
2023-04-21T06:54:05.763Z,62.40
2023-04-21T06:56:42.808Z,61.70
2023-04-21T06:59:17.759Z,60.60
2023-04-21T07:01:52.772Z,59.70
2023-04-21T07:04:30.286Z,59.10
2023-04-21T07:07:05.329Z,58.40
2023-04-21T07:09:40.198Z,58.00
2023-04-21T07:12:15.086Z,57.80
2023-04-21T07:14:49.932Z,57.80
2023-04-21T07:17:24.888Z,57.90
2023-04-21T07:19:59.807Z,58.10
2023-04-21T07:22:36.071Z,58.60
2023-04-21T07:25:11.337Z,59.00
2023-04-21T07:27:46.296Z,59.40
2023-04-21T07:30:21.200Z,59.80
2023-04-21T07:32:57.324Z,60.10
2023-04-21T07:35:32.508Z,60.30
2023-04-21T07:38:07.409Z,60.50
2023-04-21T07:40:42.371Z,60.40
2023-04-21T07:43:18.185Z,60.40
2023-04-21T07:45:53.357Z,60.50
2023-04-21T07:48:28.228Z,60.30
2023-04-21T07:51:03.573Z,59.00
2023-04-21T07:53:38.448Z,58.50
2023-04-21T07:56:13.347Z,57.00
2023-04-21T07:58:48.170Z,55.90
2023-04-21T08:01:23.759Z,54.60
2023-04-21T08:03:58.920Z,53.60
2023-04-21T08:06:34.004Z,52.60
2023-04-21T08:09:08.894Z,51.40
2023-04-21T08:11:43.782Z,50.60
2023-04-21T08:14:19.028Z,49.30
2023-04-21T08:16:56.751Z,48.60
2023-04-21T08:19:32.249Z,47.10
2023-04-21T08:22:07.200Z,47.10
2023-04-21T08:24:42.081Z,46.10
2023-04-21T08:27:16.977Z,45.60
2023-04-21T08:29:52.330Z,45.50
2023-04-21T08:32:27.415Z,45.10
2023-04-21T08:35:02.351Z,45.10
2023-04-21T08:37:38.986Z,44.60
2023-04-21T08:40:14.066Z,44.10
2023-04-21T08:42:48.942Z,44.20
2023-04-21T08:45:24.002Z,44.40
2023-04-21T08:48:01.467Z,44.70
2023-04-21T08:50:37.817Z,44.70
2023-04-21T08:53:13.796Z,45.20
2023-04-21T08:56:07.504Z,45.10
2023-04-21T08:58:45.926Z,45.40
2023-04-21T09:01:21.050Z,45.70
2023-04-21T09:04:17.320Z,46.00
2023-04-21T09:06:52.441Z,46.30
2023-04-21T09:09:27.406Z,46.50
2023-04-21T09:12:02.382Z,47.40
2023-04-21T09:14:37.253Z,47.10
2023-04-21T09:17:12.240Z,48.00
2023-04-21T09:19:47.587Z,47.60
2023-04-21T09:22:28.316Z,47.40
2023-04-21T09:25:03.510Z,46.30
2023-04-21T09:27:38.632Z,45.90
2023-04-21T09:30:15.196Z,46.10
2023-04-21T09:32:50.488Z,45.20
2023-04-21T09:35:36.473Z,45.70
2023-04-21T09:38:12.754Z,45.80
2023-04-21T09:40:58.077Z,45.20
2023-04-21T09:43:32.978Z,44.00
2023-04-21T09:46:08.820Z,44.10
2023-04-21T09:48:47.871Z,44.10
2023-04-21T09:51:37.287Z,44.50
2023-04-21T09:57:03.007Z,44.00
2023-04-21T09:59:44.799Z,43.70
2023-04-21T10:02:20.803Z,43.10
2023-04-21T10:04:56.060Z,42.20
2023-04-21T10:07:31.101Z,41.70
2023-04-21T10:10:27.208Z,41.80
2023-04-21T10:13:02.860Z,41.40
2023-04-21T10:15:42.163Z,40.90
2023-04-21T10:18:23.082Z,40.50
2023-04-21T10:21:21.876Z,40.60
2023-04-21T10:23:59.137Z,40.60
2023-04-21T10:26:35.977Z,39.90
2023-04-21T10:29:11.883Z,39.70
2023-04-21T10:31:53.680Z,39.70
2023-04-21T10:34:38.818Z,40.10
2023-04-21T10:37:17.266Z,39.80
2023-04-21T10:39:54.793Z,39.90
2023-04-21T10:42:34.337Z,39.80
2023-04-21T10:45:10.863Z,39.70
2023-04-21T10:47:51.304Z,39.50
2023-04-21T10:50:31.495Z,39.20
2023-04-21T10:53:11.853Z,39.90
2023-04-21T10:55:49.910Z,39.70
2023-04-21T10:58:25.833Z,39.20
2023-04-21T11:01:03.280Z,39.40
2023-04-21T11:03:38.429Z,39.60
2023-04-21T11:06:18.535Z,39.30
2023-04-21T11:08:57.753Z,38.80
2023-04-21T11:11:32.745Z,38.70
2023-04-21T11:14:07.695Z,38.60
2023-04-21T11:16:43.133Z,38.00
2023-04-21T11:19:18.242Z,36.90
2023-04-21T11:21:56.135Z,37.10
2023-04-21T11:24:34.280Z,37.60
2023-04-21T11:27:09.312Z,37.60
2023-04-21T11:29:47.294Z,36.70
2023-04-21T11:32:22.256Z,35.60
2023-04-21T11:34:57.170Z,35.60
2023-04-21T11:37:32.712Z,35.20
2023-04-21T11:40:09.036Z,34.90
2023-04-21T11:42:44.737Z,35.40
2023-04-21T11:45:21.904Z,34.60
2023-04-21T11:48:16.652Z,34.50
2023-04-21T11:50:51.641Z,34.40
2023-04-21T11:53:26.638Z,34.10
2023-04-21T11:56:01.627Z,34.30
2023-04-21T11:58:36.648Z,35.10
2023-04-21T12:01:11.561Z,34.30
2023-04-21T12:03:56.434Z,35.10
2023-04-21T12:06:32.026Z,35.30
2023-04-21T12:09:06.941Z,34.40
2023-04-21T12:11:41.812Z,34.40
2023-04-21T12:14:19.269Z,34.20
2023-04-21T12:16:57.727Z,34.60
2023-04-21T12:19:37.349Z,36.20
2023-04-21T12:22:22.963Z,36.20
2023-04-21T12:24:57.828Z,35.20
2023-04-21T12:27:32.780Z,33.90
2023-04-21T12:30:08.802Z,34.70
2023-04-21T12:32:43.824Z,32.80
2023-04-21T12:35:18.707Z,33.30
2023-04-21T12:37:53.552Z,34.10
2023-04-21T12:40:29.554Z,32.80
2023-04-21T12:43:04.566Z,33.90
2023-04-21T12:45:41.076Z,32.80
2023-04-21T12:48:17.115Z,32.90
2023-04-21T12:50:57.122Z,32.00
2023-04-21T12:53:37.581Z,31.90
2023-04-21T12:56:12.626Z,32.20
2023-04-21T12:58:48.316Z,30.60
2023-04-21T13:01:23.223Z,31.00
2023-04-21T13:03:58.808Z,32.40
2023-04-21T13:06:34.059Z,32.80
2023-04-21T13:09:09.222Z,31.60
2023-04-21T13:11:44.194Z,30.30
2023-04-21T13:14:19.731Z,31.30
2023-04-21T13:16:54.732Z,31.70
2023-04-21T13:19:30.325Z,31.20
2023-04-21T13:22:06.944Z,29.70
2023-04-21T13:24:42.950Z,30.90
2023-04-21T13:27:17.991Z,29.20
2023-04-21T13:29:54.247Z,29.60
2023-04-21T13:32:29.184Z,29.50
2023-04-21T13:35:09.368Z,29.70
2023-04-21T13:37:44.374Z,29.50
2023-04-21T13:40:19.259Z,30.20
2023-04-21T13:42:54.271Z,28.30
2023-04-21T13:45:29.518Z,29.60
2023-04-21T13:48:04.824Z,29.20
2023-04-21T13:50:39.821Z,29.20
2023-04-21T13:53:16.594Z,29.30
2023-04-21T13:55:54.596Z,29.70
2023-04-21T13:58:30.863Z,29.40
2023-04-21T14:01:05.856Z,29.10
2023-04-21T14:03:41.568Z,30.00
2023-04-21T14:06:17.272Z,29.90
2023-04-21T14:08:53.252Z,29.20
2023-04-21T14:11:28.296Z,29.20
2023-04-21T14:14:09.074Z,28.70
2023-04-21T14:16:48.959Z,29.70
2023-04-21T14:19:24.074Z,29.70
2023-04-21T14:21:58.977Z,28.70
2023-04-21T14:24:34.048Z,29.00
2023-04-21T14:27:10.725Z,29.00
2023-04-21T14:29:46.004Z,28.90
2023-04-21T14:32:21.528Z,27.70
2023-04-21T14:34:58.638Z,28.10
2023-04-21T14:37:33.598Z,27.40
2023-04-21T14:40:09.861Z,28.60
2023-04-21T14:42:44.892Z,28.10
2023-04-21T14:45:19.931Z,27.30
2023-04-21T14:47:55.100Z,26.90
2023-04-21T14:50:30.749Z,27.30
2023-04-21T14:53:05.706Z,28.00
2023-04-21T14:55:40.762Z,27.20
2023-04-21T14:58:16.386Z,28.00
2023-04-21T15:00:51.463Z,26.60
2023-04-21T15:03:26.955Z,26.50
2023-04-21T15:06:01.919Z,26.50
2023-04-21T15:08:36.837Z,26.70
2023-04-21T15:11:11.724Z,26.60
2023-04-21T15:13:46.996Z,26.50
2023-04-21T15:16:21.907Z,26.40
2023-04-21T15:18:56.814Z,27.10
2023-04-21T15:21:32.704Z,26.40
2023-04-21T15:24:08.110Z,27.00
2023-04-21T15:26:43.302Z,27.10
2023-04-21T15:29:18.137Z,26.90
2023-04-21T15:31:53.046Z,27.70
2023-04-21T15:34:27.924Z,26.70
2023-04-21T15:37:02.771Z,26.70
2023-04-21T15:39:38.550Z,25.80
2023-04-21T15:42:14.031Z,26.00
2023-04-21T15:44:49.355Z,25.30
2023-04-21T15:47:24.349Z,25.50
2023-04-21T15:49:59.437Z,26.40
2023-04-21T15:52:36.883Z,26.30
2023-04-21T15:55:12.543Z,26.30
2023-04-21T15:57:47.427Z,26.10
2023-04-21T16:00:22.414Z,26.80
2023-04-21T16:02:58.305Z,26.40
2023-04-21T16:05:33.484Z,27.00
2023-04-21T16:08:08.433Z,26.80
2023-04-21T16:10:43.340Z,26.40
2023-04-21T16:13:18.896Z,26.60
2023-04-21T16:15:54.003Z,26.60
2023-04-21T16:18:29.004Z,27.00
2023-04-21T16:21:04.218Z,27.10
2023-04-21T16:23:39.187Z,27.10
2023-04-21T16:26:14.467Z,27.00
2023-04-21T16:28:51.409Z,27.30
2023-04-21T16:31:26.352Z,27.80
2023-04-21T16:34:01.298Z,27.10
2023-04-21T16:36:36.264Z,26.80
2023-04-21T16:39:11.219Z,27.00
2023-04-21T16:41:46.210Z,27.10
2023-04-21T16:44:21.076Z,27.50
2023-04-21T16:46:56.251Z,27.30
2023-04-21T16:49:31.222Z,27.00
2023-04-21T16:52:06.151Z,27.10
2023-04-21T16:54:41.120Z,27.40
2023-04-21T16:57:16.150Z,27.70
2023-04-21T16:59:52.846Z,27.80
2023-04-21T17:02:27.808Z,27.60
2023-04-21T17:05:02.834Z,27.60
2023-04-21T17:07:39.420Z,28.20
2023-04-21T17:10:14.521Z,28.70
2023-04-21T17:12:49.402Z,28.60
2023-04-21T17:15:24.736Z,28.70
2023-04-21T17:17:59.670Z,28.90
2023-04-21T17:20:35.030Z,29.10
2023-04-21T17:23:09.906Z,29.00
2023-04-21T17:25:44.768Z,29.30
2023-04-21T17:28:19.701Z,29.30
2023-04-21T17:31:07.045Z,29.70
2023-04-21T17:33:49.139Z,29.90
2023-04-21T17:36:25.335Z,30.00
2023-04-21T17:39:00.480Z,31.40
2023-04-21T17:41:35.405Z,32.10
2023-04-21T17:44:10.288Z,32.50
2023-04-21T17:46:45.281Z,32.50
2023-04-21T17:49:20.201Z,33.30
2023-04-21T17:51:55.077Z,32.70
2023-04-21T17:54:29.919Z,32.40
2023-04-21T17:57:04.831Z,32.30
2023-04-21T17:59:39.896Z,32.50
2023-04-21T18:02:14.885Z,32.80
2023-04-21T18:04:49.998Z,32.70
2023-04-21T18:07:25.020Z,32.70
2023-04-21T18:09:59.985Z,32.80
2023-04-21T18:12:34.892Z,32.80
2023-04-21T18:15:10.687Z,32.90
2023-04-21T18:17:46.025Z,33.20
2023-04-21T18:20:21.030Z,32.60
2023-04-21T18:22:55.904Z,32.50
2023-04-21T18:25:41.993Z,32.60
2023-04-21T18:28:17.762Z,32.30
2023-04-21T18:30:53.391Z,32.20
2023-04-21T18:33:28.517Z,31.80
2023-04-21T18:36:03.707Z,31.80
2023-04-21T18:38:38.665Z,31.80
2023-04-21T18:41:13.776Z,30.90
2023-04-21T18:43:48.743Z,31.30
2023-04-21T18:46:23.908Z,30.60
2023-04-21T18:48:59.039Z,30.50
2023-04-21T18:51:34.657Z,30.30
2023-04-21T18:54:09.623Z,30.00
2023-04-21T18:56:45.900Z,30.20
2023-04-21T18:59:22.134Z,30.10
2023-04-21T19:01:57.767Z,30.10
2023-04-21T19:04:33.128Z,30.00
2023-04-21T19:07:09.974Z,30.00
2023-04-21T19:09:44.980Z,30.00
2023-04-21T19:12:21.895Z,30.00
2023-04-21T19:14:57.412Z,30.10
2023-04-21T19:17:32.502Z,29.90
2023-04-21T19:20:08.411Z,29.70
2023-04-21T19:22:44.264Z,29.60
2023-04-21T19:25:19.366Z,29.50
2023-04-21T19:27:54.370Z,29.60
2023-04-21T19:30:29.394Z,29.60
2023-04-21T19:33:05.442Z,29.70
2023-04-21T19:35:41.033Z,30.10
2023-04-21T19:38:16.011Z,30.40
2023-04-21T19:40:50.908Z,30.30
2023-04-21T19:43:26.370Z,30.30
2023-04-21T19:46:01.287Z,30.50
2023-04-21T19:48:37.035Z,30.80
2023-04-21T19:51:11.953Z,31.00
2023-04-21T19:53:53.451Z,31.50
2023-04-21T19:56:36.553Z,31.10
2023-04-21T19:59:11.413Z,31.20
2023-04-21T20:01:46.308Z,31.30
2023-04-21T20:04:21.472Z,31.20
2023-04-21T20:06:56.368Z,31.30
2023-04-21T20:09:31.290Z,31.20
2023-04-21T20:12:06.193Z,31.20
2023-04-21T20:14:41.155Z,31.00
2023-04-21T20:17:16.322Z,30.80
2023-04-21T20:19:52.413Z,30.70
2023-04-21T20:22:28.413Z,30.40
2023-04-21T20:25:05.897Z,30.30
2023-04-21T20:27:41.377Z,30.30
2023-04-21T20:30:16.240Z,30.20
2023-04-21T20:32:51.354Z,30.20
2023-04-21T20:35:26.394Z,30.20
2023-04-21T20:38:05.536Z,30.10
2023-04-21T20:40:40.445Z,30.10
2023-04-21T20:43:15.304Z,29.80
2023-04-21T20:45:50.714Z,29.80
2023-04-21T20:48:26.412Z,29.90
2023-04-21T20:51:01.625Z,30.00
2023-04-21T20:53:36.486Z,30.40
2023-04-21T20:56:11.359Z,30.60
2023-04-21T20:58:46.217Z,30.70
2023-04-21T21:01:23.485Z,30.70
2023-04-21T21:04:01.170Z,30.80
2023-04-21T21:06:37.810Z,30.90
2023-04-21T21:09:12.766Z,31.20
2023-04-21T21:11:47.790Z,31.40
2023-04-21T21:14:22.792Z,31.50
2023-04-21T21:16:57.834Z,31.60
2023-04-21T21:19:32.754Z,31.40
2023-04-21T21:22:07.686Z,31.50
2023-04-21T21:24:42.974Z,31.60
2023-04-21T21:27:17.942Z,31.80
2023-04-21T21:29:52.772Z,31.80
2023-04-21T21:32:27.712Z,31.70
2023-04-21T21:35:02.724Z,31.80
2023-04-21T21:37:38.302Z,31.70
2023-04-21T21:40:13.327Z,31.90
2023-04-21T21:42:48.152Z,31.90
2023-04-21T21:45:24.156Z,32.30
2023-04-21T21:47:59.107Z,32.60
2023-04-21T21:50:33.992Z,32.90
2023-04-21T21:53:08.874Z,33.00
2023-04-21T21:55:43.772Z,33.30
2023-04-21T21:58:19.366Z,33.30
2023-04-21T22:00:54.921Z,33.30
2023-04-21T22:03:30.018Z,33.30
2023-04-21T22:06:06.165Z,33.60
2023-04-21T22:08:41.858Z,33.60
2023-04-21T22:11:17.085Z,33.80
2023-04-21T22:13:51.948Z,34.00
2023-04-21T22:16:28.550Z,34.00
2023-04-21T22:19:03.594Z,33.90
2023-04-21T22:21:38.809Z,33.90
2023-04-21T22:24:13.726Z,33.90
2023-04-21T22:26:48.587Z,34.00
2023-04-21T22:29:23.508Z,34.10
2023-04-21T22:31:58.667Z,34.10
2023-04-21T22:34:33.550Z,34.20
2023-04-21T22:37:08.475Z,34.30
2023-04-21T22:39:43.347Z,34.70
2023-04-21T22:42:18.854Z,34.50
2023-04-21T22:44:53.765Z,34.50
2023-04-21T22:47:28.659Z,34.50
2023-04-21T22:50:04.412Z,34.70
2023-04-21T22:52:39.288Z,34.90
2023-04-21T22:55:14.406Z,34.80
2023-04-21T22:57:49.652Z,34.80
2023-04-21T23:00:24.574Z,34.90
2023-04-21T23:02:59.536Z,35.20
2023-04-21T23:05:34.566Z,35.30
2023-04-21T23:08:09.470Z,35.40
2023-04-21T23:10:44.354Z,35.20
2023-04-21T23:13:19.219Z,35.30
2023-04-21T23:15:54.054Z,35.40
2023-04-21T23:18:28.924Z,35.40
2023-04-21T23:21:03.920Z,35.40
2023-04-21T23:23:38.969Z,35.30
2023-04-21T23:26:13.808Z,35.20
2023-04-21T23:28:48.680Z,35.20
2023-04-21T23:31:23.765Z,35.10
2023-04-21T23:34:00.267Z,35.00
2023-04-21T23:36:35.728Z,35.10
2023-04-21T23:39:11.401Z,35.20
2023-04-21T23:41:46.293Z,35.30
2023-04-21T23:44:21.182Z,35.50
2023-04-21T23:46:56.107Z,35.60
2023-04-21T23:49:32.486Z,35.80
2023-04-21T23:52:08.092Z,35.80
2023-04-21T23:54:43.017Z,35.80
2023-04-21T23:57:18.470Z,35.90
2023-04-21T23:59:53.328Z,36.00
